createdAt,value
2023-01-13T00:01:09.844Z,9.70
2023-01-13T00:03:37.325Z,9.70
2023-01-13T00:06:05.396Z,9.70
2023-01-13T00:08:32.664Z,9.60
2023-01-13T00:10:59.590Z,9.60
2023-01-13T00:13:29.006Z,9.50
2023-01-13T00:16:00.811Z,9.50
2023-01-13T00:18:28.232Z,9.50
2023-01-13T00:21:21.876Z,9.50
2023-01-13T00:23:49.821Z,9.50
2023-01-13T00:26:19.763Z,9.40
2023-01-13T00:28:46.589Z,9.40
2023-01-13T00:31:16.324Z,9.40
2023-01-13T00:33:43.295Z,9.30
2023-01-13T00:36:13.106Z,9.30
2023-01-13T00:38:42.876Z,9.30
2023-01-13T00:41:12.265Z,9.30
2023-01-13T00:43:38.965Z,9.30
2023-01-13T00:46:07.370Z,9.20
2023-01-13T00:48:35.176Z,9.20
2023-01-13T00:51:04.581Z,9.20
2023-01-13T00:53:35.666Z,9.20
2023-01-13T00:56:04.705Z,9.20
2023-01-13T00:58:32.619Z,9.20
2023-01-13T01:01:07.962Z,9.20
2023-01-13T01:03:35.542Z,9.20
2023-01-13T01:06:08.882Z,9.20
2023-01-13T01:08:36.301Z,9.20
2023-01-13T01:11:15.452Z,9.30
2023-01-13T01:13:42.732Z,9.30
2023-01-13T01:16:12.233Z,9.20
2023-01-13T01:18:41.960Z,9.20
2023-01-13T01:21:10.412Z,9.20
2023-01-13T01:23:38.348Z,9.20
2023-01-13T01:26:08.094Z,9.10
2023-01-13T01:28:35.306Z,9.10
2023-01-13T01:31:10.538Z,9.10
2023-01-13T01:33:37.350Z,9.10
2023-01-13T01:36:05.055Z,9.10
2023-01-13T01:38:31.757Z,9.10
2023-01-13T01:40:58.607Z,9.00
2023-01-13T01:44:00.273Z,9.10
2023-01-13T01:46:27.439Z,9.10
2023-01-13T01:48:58.378Z,9.10
2023-01-13T01:51:25.424Z,9.10
2023-01-13T01:53:53.866Z,9.00
2023-01-13T01:56:21.437Z,9.00
2023-01-13T01:58:51.580Z,9.00
2023-01-13T02:01:18.846Z,8.90
2023-01-13T02:04:00.953Z,8.90
2023-01-13T02:06:29.988Z,8.90
2023-01-13T02:08:59.284Z,8.90
2023-01-13T02:11:50.131Z,8.90
2023-01-13T02:14:17.377Z,8.90
2023-01-13T02:17:04.107Z,8.90
2023-01-13T02:19:43.084Z,8.90
2023-01-13T02:22:51.551Z,8.90
2023-01-13T02:25:41.450Z,8.90
2023-01-13T02:29:12.313Z,8.80
2023-01-13T02:31:43.516Z,8.90
2023-01-13T02:34:14.992Z,8.80
2023-01-13T02:36:58.264Z,8.80
2023-01-13T02:39:41.947Z,8.80
2023-01-13T02:42:30.580Z,8.70
2023-01-13T02:45:12.957Z,8.80
2023-01-13T02:47:44.152Z,8.80
2023-01-13T02:50:13.797Z,8.80
2023-01-13T02:52:48.675Z,8.80
2023-01-13T02:55:26.563Z,8.80
2023-01-13T02:57:54.659Z,8.80
2023-01-13T03:00:22.451Z,8.80
2023-01-13T03:02:49.803Z,8.80
2023-01-13T03:05:17.493Z,8.80
2023-01-13T03:07:56.972Z,8.80
2023-01-13T03:10:37.351Z,8.80
2023-01-13T03:13:33.429Z,8.80
2023-01-13T03:16:15.333Z,8.80
2023-01-13T03:18:54.954Z,8.80
2023-01-13T03:21:36.542Z,8.80
2023-01-13T03:24:06.206Z,8.80
2023-01-13T03:26:33.143Z,8.80
2023-01-13T03:29:08.486Z,8.80
2023-01-13T03:31:40.428Z,8.80
2023-01-13T03:34:13.682Z,8.90
2023-01-13T03:36:41.706Z,8.90
2023-01-13T03:39:14.776Z,8.90
2023-01-13T03:42:05.600Z,8.90
2023-01-13T03:44:47.576Z,8.90
2023-01-13T03:47:33.646Z,8.90
2023-01-13T03:50:09.196Z,8.90
2023-01-13T03:52:53.643Z,9.00
2023-01-13T03:55:27.871Z,9.00
2023-01-13T03:58:39.355Z,9.10
2023-01-13T04:01:12.538Z,9.10
2023-01-13T04:03:54.709Z,9.10
2023-01-13T04:06:47.627Z,9.00
2023-01-13T04:09:37.312Z,9.00
2023-01-13T04:12:17.156Z,9.00
2023-01-13T04:14:44.889Z,9.00
2023-01-13T04:17:12.023Z,9.00
2023-01-13T04:19:38.795Z,8.90
2023-01-13T04:22:05.494Z,8.90
2023-01-13T04:24:32.252Z,8.90
2023-01-13T04:26:58.984Z,8.80
2023-01-13T04:29:25.767Z,8.80
2023-01-13T04:31:52.552Z,8.80
2023-01-13T04:34:19.456Z,8.80
2023-01-13T04:36:46.222Z,8.80
2023-01-13T04:39:12.977Z,8.80
2023-01-13T04:41:57.767Z,8.80
2023-01-13T04:44:24.567Z,8.70
2023-01-13T04:46:51.251Z,8.70
2023-01-13T04:49:18.351Z,8.60
2023-01-13T04:51:45.031Z,8.50
2023-01-13T04:54:11.979Z,8.50
2023-01-13T04:56:38.686Z,8.40
2023-01-13T04:59:05.538Z,8.40
2023-01-13T05:01:32.459Z,8.30
2023-01-13T05:03:59.335Z,8.30
2023-01-13T05:06:26.096Z,8.20
2023-01-13T05:08:52.758Z,8.20
2023-01-13T05:11:38.139Z,8.20
2023-01-13T05:14:23.581Z,8.20
2023-01-13T05:17:02.206Z,8.20
2023-01-13T05:19:35.728Z,8.20
2023-01-13T05:22:21.447Z,8.20
2023-01-13T05:25:06.906Z,8.20
2023-01-13T05:27:34.340Z,8.20
2023-01-13T05:30:01.296Z,8.20
2023-01-13T05:32:28.271Z,8.20
2023-01-13T05:34:55.966Z,8.30
2023-01-13T05:37:23.921Z,8.30
2023-01-13T05:40:09.300Z,8.30
2023-01-13T05:42:54.923Z,8.30
2023-01-13T05:45:21.952Z,8.40
2023-01-13T05:47:48.690Z,8.40
2023-01-13T05:50:16.234Z,8.40
2023-01-13T05:52:43.543Z,8.40
2023-01-13T05:55:11.793Z,8.40
2023-01-13T05:57:38.464Z,8.40
2023-01-13T06:00:05.804Z,8.40
2023-01-13T06:02:32.580Z,8.40
2023-01-13T06:04:59.420Z,8.40
2023-01-13T06:07:26.116Z,8.40
2023-01-13T06:09:52.903Z,8.40
2023-01-13T06:12:19.679Z,8.30
2023-01-13T06:14:46.382Z,8.30
2023-01-13T06:17:14.587Z,8.30
2023-01-13T06:19:41.996Z,8.30
2023-01-13T06:22:11.470Z,8.20
2023-01-13T06:24:38.244Z,8.20
2023-01-13T06:27:06.511Z,8.20
2023-01-13T06:29:33.592Z,8.20
2023-01-13T06:32:05.955Z,8.20
2023-01-13T06:34:34.820Z,8.30
2023-01-13T06:37:03.860Z,8.20
2023-01-13T06:39:31.715Z,8.20
2023-01-13T06:42:17.999Z,8.20
2023-01-13T06:44:45.312Z,8.10
2023-01-13T06:47:12.052Z,8.20
2023-01-13T06:49:38.910Z,8.10
2023-01-13T06:52:05.989Z,8.10
2023-01-13T06:54:32.837Z,8.10
2023-01-13T06:56:59.577Z,8.10
2023-01-13T06:59:26.312Z,8.10
2023-01-13T07:01:53.116Z,8.20
2023-01-13T07:04:19.999Z,8.20
2023-01-13T07:06:46.821Z,8.20
2023-01-13T07:09:13.629Z,8.20
2023-01-13T07:11:40.424Z,8.20
2023-01-13T07:14:25.839Z,8.20
2023-01-13T07:16:54.158Z,8.20
2023-01-13T07:19:23.885Z,8.20
2023-01-13T07:21:53.696Z,8.20
2023-01-13T07:24:21.015Z,8.20
2023-01-13T07:26:47.832Z,8.20
2023-01-13T07:29:14.597Z,8.20
2023-01-13T07:31:41.383Z,8.20
2023-01-13T07:34:08.192Z,8.20
2023-01-13T07:36:35.393Z,8.20
2023-01-13T07:39:02.985Z,8.20
2023-01-13T07:41:48.573Z,8.20
2023-01-13T07:44:15.267Z,8.20
2023-01-13T07:46:42.297Z,8.20
2023-01-13T07:49:09.533Z,8.20
2023-01-13T07:51:38.369Z,8.20
2023-01-13T07:54:05.505Z,8.20
2023-01-13T07:56:32.972Z,8.20
2023-01-13T07:59:00.976Z,8.20
2023-01-13T08:01:28.598Z,8.20
2023-01-13T08:03:56.287Z,8.20
2023-01-13T08:06:23.490Z,8.30
2023-01-13T08:08:50.487Z,8.30
2023-01-13T08:11:18.807Z,8.30
2023-01-13T08:13:45.647Z,8.40
2023-01-13T08:16:14.667Z,8.40
2023-01-13T08:18:41.522Z,8.40
2023-01-13T08:21:11.455Z,8.50
2023-01-13T08:23:38.491Z,8.50
2023-01-13T08:26:08.328Z,8.50
2023-01-13T08:28:35.219Z,8.50
2023-01-13T08:31:07.475Z,8.60
2023-01-13T08:33:34.942Z,8.70
2023-01-13T08:36:06.725Z,8.70
2023-01-13T08:38:34.656Z,8.70
2023-01-13T08:41:02.263Z,8.70
2023-01-13T08:43:28.998Z,8.70
2023-01-13T08:45:57.964Z,8.60
2023-01-13T08:48:24.985Z,8.70
2023-01-13T08:50:51.701Z,8.70
2023-01-13T08:53:18.971Z,8.70
2023-01-13T08:55:45.858Z,8.70
2023-01-13T08:58:15.763Z,8.70
2023-01-13T09:00:43.979Z,8.70
2023-01-13T09:03:10.779Z,8.70
2023-01-13T09:05:37.537Z,8.80
2023-01-13T09:08:04.314Z,8.80
2023-01-13T09:10:31.842Z,8.80
2023-01-13T09:13:14.077Z,8.80
2023-01-13T09:15:44.083Z,8.80
2023-01-13T09:18:11.681Z,8.70
2023-01-13T09:20:38.688Z,8.70
2023-01-13T09:23:08.822Z,8.70
2023-01-13T09:25:36.892Z,8.70
2023-01-13T09:28:05.003Z,8.70
2023-01-13T09:30:32.052Z,8.70
2023-01-13T09:33:22.810Z,8.70
2023-01-13T09:35:49.608Z,8.70
2023-01-13T09:38:16.327Z,8.80
2023-01-13T09:40:43.975Z,8.80
2023-01-13T09:43:52.360Z,8.80
2023-01-13T09:46:44.630Z,8.80
2023-01-13T09:49:22.444Z,8.70
2023-01-13T09:52:26.954Z,8.70
2023-01-13T09:55:15.522Z,8.80
2023-01-13T09:57:42.435Z,8.90
2023-01-13T10:00:22.352Z,8.80
2023-01-13T10:03:12.999Z,8.70
2023-01-13T10:05:59.215Z,8.50
2023-01-13T10:08:35.508Z,8.40
2023-01-13T10:11:28.425Z,8.30
2023-01-13T10:13:59.579Z,8.30
2023-01-13T10:16:45.665Z,8.10
2023-01-13T10:19:18.921Z,8.10
2023-01-13T10:22:04.854Z,8.10
2023-01-13T10:24:50.498Z,8.10
2023-01-13T10:27:27.307Z,8.00
2023-01-13T10:29:54.061Z,8.00
2023-01-13T10:32:20.786Z,8.00
2023-01-13T10:34:52.197Z,8.00
2023-01-13T10:37:22.256Z,8.10
2023-01-13T10:39:52.019Z,8.00
2023-01-13T10:42:22.899Z,8.00
2023-01-13T10:44:53.645Z,8.00
2023-01-13T10:47:22.059Z,8.00
2023-01-13T10:50:12.963Z,8.10
2023-01-13T10:52:54.668Z,8.00
2023-01-13T10:55:36.717Z,8.00
2023-01-13T10:58:20.624Z,8.10
2023-01-13T11:00:49.304Z,8.10
2023-01-13T11:03:16.091Z,8.20
2023-01-13T11:05:49.505Z,8.10
2023-01-13T11:08:28.445Z,8.10
2023-01-13T11:10:59.742Z,8.20
2023-01-13T11:13:57.697Z,8.20
2023-01-13T11:16:25.966Z,8.30
2023-01-13T11:19:02.535Z,8.40
2023-01-13T11:21:35.767Z,8.40
2023-01-13T11:24:30.949Z,8.50
2023-01-13T11:27:04.005Z,8.60
2023-01-13T11:29:54.463Z,8.60
2023-01-13T11:32:23.778Z,8.60
2023-01-13T11:34:57.071Z,8.60
2023-01-13T11:37:31.296Z,8.70
2023-01-13T11:40:07.661Z,8.60
2023-01-13T11:42:49.616Z,8.60
2023-01-13T11:45:24.192Z,8.60
2023-01-13T11:47:57.675Z,8.70
2023-01-13T11:50:59.134Z,8.70
2023-01-13T11:53:49.153Z,8.70
2023-01-13T11:56:53.035Z,8.70
2023-01-13T11:59:41.768Z,8.70
2023-01-13T12:02:24.464Z,8.80
2023-01-13T12:04:54.256Z,8.80
2023-01-13T12:07:33.872Z,8.80
2023-01-13T12:10:30.007Z,8.80
2023-01-13T12:13:01.827Z,8.80
2023-01-13T12:15:35.777Z,8.80
2023-01-13T12:18:21.054Z,8.90
2023-01-13T12:21:15.655Z,8.90
2023-01-13T12:24:05.674Z,8.90
2023-01-13T12:26:37.624Z,9.10
2023-01-13T12:29:18.988Z,9.10
2023-01-13T12:31:49.092Z,9.20
2023-01-13T12:34:35.828Z,9.20
2023-01-13T12:37:17.105Z,9.20
2023-01-13T12:39:52.665Z,9.20
2023-01-13T12:42:52.231Z,9.30
2023-01-13T12:45:19.366Z,9.30
2023-01-13T12:47:46.862Z,9.30
2023-01-13T12:50:22.955Z,9.40
2023-01-13T12:52:51.657Z,9.40
2023-01-13T12:55:23.249Z,9.40
2023-01-13T12:58:08.029Z,9.40
2023-01-13T13:01:11.912Z,9.50
2023-01-13T13:03:39.097Z,9.50
2023-01-13T13:06:08.614Z,9.60
2023-01-13T13:08:44.141Z,9.60
2023-01-13T13:11:32.457Z,9.60
2023-01-13T13:14:13.316Z,9.60
2023-01-13T13:16:51.614Z,9.50
2023-01-13T13:19:18.516Z,9.60
2023-01-13T13:22:13.332Z,9.50
2023-01-13T13:24:49.053Z,9.40
2023-01-13T13:27:19.916Z,9.40
2023-01-13T13:30:22.853Z,9.50
2023-01-13T13:33:17.921Z,9.50
2023-01-13T13:35:56.613Z,9.40
2023-01-13T13:39:09.950Z,9.40
2023-01-13T13:42:02.408Z,9.50
2023-01-13T13:44:55.121Z,9.50
2023-01-13T13:47:22.173Z,9.40
2023-01-13T13:49:55.962Z,9.50
2023-01-13T13:52:27.884Z,9.50
2023-01-13T13:55:00.476Z,9.50
2023-01-13T13:57:43.360Z,9.50
2023-01-13T14:00:17.105Z,9.50
2023-01-13T14:02:50.755Z,9.50
2023-01-13T14:05:22.955Z,9.60
2023-01-13T14:07:52.576Z,9.60
2023-01-13T14:10:24.757Z,9.60
2023-01-13T14:12:52.802Z,9.60
2023-01-13T14:15:27.726Z,9.50
2023-01-13T14:17:54.775Z,9.60
2023-01-13T14:20:21.569Z,9.60
2023-01-13T14:22:50.783Z,9.50
2023-01-13T14:25:39.764Z,9.50
2023-01-13T14:28:22.078Z,9.50
2023-01-13T14:30:51.250Z,9.50
2023-01-13T14:33:26.791Z,9.50
2023-01-13T14:36:14.661Z,9.50
2023-01-13T14:38:43.207Z,9.50
2023-01-13T14:41:20.881Z,9.60
2023-01-13T14:43:49.973Z,9.60
2023-01-13T14:46:17.831Z,9.60
2023-01-13T14:48:49.783Z,9.60
2023-01-13T14:51:25.487Z,9.60
2023-01-13T14:53:52.806Z,9.50
2023-01-13T14:57:04.511Z,9.50
2023-01-13T14:59:56.130Z,9.50
2023-01-13T15:02:33.474Z,9.50
2023-01-13T15:05:24.032Z,9.50
2023-01-13T15:07:54.906Z,9.50
2023-01-13T15:10:28.727Z,9.40
2023-01-13T15:12:57.767Z,9.50
2023-01-13T15:15:36.653Z,9.40
2023-01-13T15:18:12.938Z,9.40
2023-01-13T15:20:41.449Z,9.40
2023-01-13T15:23:08.588Z,9.40
2023-01-13T15:25:38.049Z,9.40
2023-01-13T15:28:05.964Z,9.40
2023-01-13T15:30:33.076Z,9.40
2023-01-13T15:32:59.965Z,9.40
2023-01-13T15:35:28.707Z,9.40
2023-01-13T15:37:57.147Z,9.50
2023-01-13T15:40:29.568Z,9.40
2023-01-13T15:43:14.981Z,9.40
2023-01-13T15:46:00.857Z,9.40
2023-01-13T15:48:30.711Z,9.40
2023-01-13T15:50:57.634Z,9.30
2023-01-13T15:53:25.120Z,9.30
2023-01-13T15:55:54.761Z,9.40
2023-01-13T15:58:26.599Z,9.40
2023-01-13T16:00:55.127Z,9.40
2023-01-13T16:03:22.167Z,9.50
2023-01-13T16:05:49.573Z,9.50
2023-01-13T16:08:17.332Z,9.50
2023-01-13T16:10:45.016Z,9.50
2023-01-13T16:13:12.965Z,9.50
2023-01-13T16:15:48.846Z,9.50
2023-01-13T16:18:21.523Z,9.50
2023-01-13T16:20:52.761Z,9.50
2023-01-13T16:23:20.285Z,9.50
2023-01-13T16:25:47.604Z,9.50
2023-01-13T16:28:21.233Z,9.50
2023-01-13T16:30:48.551Z,9.50
2023-01-13T16:33:15.391Z,9.50
2023-01-13T16:35:44.008Z,9.50
2023-01-13T16:38:28.887Z,9.40
2023-01-13T16:40:57.138Z,9.40
2023-01-13T16:43:23.906Z,9.40
2023-01-13T16:45:50.957Z,9.50
2023-01-13T16:48:20.141Z,9.40
2023-01-13T16:50:47.454Z,9.50
2023-01-13T16:53:14.244Z,9.40
2023-01-13T16:55:42.283Z,9.40
2023-01-13T16:58:18.575Z,9.50
2023-01-13T17:00:48.815Z,9.40
2023-01-13T17:03:16.459Z,9.50
2023-01-13T17:05:47.024Z,9.40
2023-01-13T17:08:18.259Z,9.30
2023-01-13T17:10:46.348Z,9.30
2023-01-13T17:13:17.073Z,9.30
2023-01-13T17:15:45.236Z,9.40
2023-01-13T17:18:13.439Z,9.40
2023-01-13T17:20:40.732Z,9.30
2023-01-13T17:23:07.523Z,9.30
2023-01-13T17:25:34.276Z,9.30
2023-01-13T17:28:00.975Z,9.30
2023-01-13T17:30:27.687Z,9.30
2023-01-13T17:32:54.538Z,9.30
2023-01-13T17:35:24.698Z,9.30
2023-01-13T17:37:54.633Z,9.30
2023-01-13T17:40:21.663Z,9.20
2023-01-13T17:42:48.558Z,9.20
2023-01-13T17:45:16.322Z,9.10
2023-01-13T17:47:43.067Z,9.00
2023-01-13T17:50:10.390Z,9.00
2023-01-13T17:52:37.076Z,9.10
2023-01-13T17:55:04.044Z,9.10
2023-01-13T17:57:30.907Z,9.10
2023-01-13T17:59:59.607Z,8.90
2023-01-13T18:02:26.671Z,9.00
2023-01-13T18:04:53.551Z,9.00
2023-01-13T18:07:20.375Z,9.00
2023-01-13T18:09:47.119Z,9.10
2023-01-13T18:12:14.537Z,9.00
2023-01-13T18:14:41.407Z,8.90
2023-01-13T18:17:08.224Z,8.70
2023-01-13T18:19:53.608Z,8.60
2023-01-13T18:22:39.101Z,8.60
2023-01-13T18:25:25.096Z,8.60
2023-01-13T18:27:51.998Z,8.50
2023-01-13T18:30:18.909Z,8.50
2023-01-13T18:32:45.597Z,8.50
2023-01-13T18:35:12.447Z,8.60
2023-01-13T18:37:42.261Z,8.50
2023-01-13T18:40:11.546Z,8.50
2023-01-13T18:42:59.131Z,8.40
2023-01-13T18:45:32.775Z,8.40
2023-01-13T18:48:02.734Z,8.40
2023-01-13T18:50:30.451Z,8.40
2023-01-13T18:52:57.323Z,8.50
2023-01-13T18:55:24.181Z,8.50
2023-01-13T18:57:51.835Z,8.50
2023-01-13T19:00:20.203Z,8.50
2023-01-13T19:02:47.698Z,8.50
2023-01-13T19:05:15.032Z,8.50
2023-01-13T19:07:46.300Z,8.50
2023-01-13T19:10:13.336Z,8.50
2023-01-13T19:12:40.163Z,8.40
2023-01-13T19:15:07.805Z,8.50
2023-01-13T19:17:35.674Z,8.40
2023-01-13T19:20:05.091Z,8.40
2023-01-13T19:22:34.063Z,8.40
2023-01-13T19:25:02.089Z,8.40
2023-01-13T19:27:29.731Z,8.40
2023-01-13T19:30:01.372Z,8.50
2023-01-13T19:32:30.753Z,8.40
2023-01-13T19:34:59.573Z,8.40
2023-01-13T19:37:34.293Z,8.40
2023-01-13T19:40:01.324Z,8.40
2023-01-13T19:42:46.727Z,8.40
2023-01-13T19:45:27.582Z,8.40
2023-01-13T19:47:55.960Z,8.40
2023-01-13T19:50:23.046Z,8.40
2023-01-13T19:52:49.802Z,8.40
2023-01-13T19:55:16.712Z,8.40
2023-01-13T19:57:43.487Z,8.30
2023-01-13T20:00:12.285Z,8.30
2023-01-13T20:02:44.828Z,8.30
2023-01-13T20:05:12.793Z,8.30
2023-01-13T20:07:39.597Z,8.30
2023-01-13T20:10:07.031Z,8.50
2023-01-13T20:12:33.764Z,8.40
2023-01-13T20:15:00.604Z,8.40
2023-01-13T20:17:27.492Z,8.40
2023-01-13T20:19:54.492Z,8.40
2023-01-13T20:22:21.267Z,8.40
2023-01-13T20:24:52.032Z,8.40
2023-01-13T20:27:19.066Z,8.30
2023-01-13T20:29:45.842Z,8.40
2023-01-13T20:32:12.601Z,8.30
2023-01-13T20:34:39.367Z,8.30
2023-01-13T20:37:06.138Z,8.30
2023-01-13T20:39:33.928Z,8.30
2023-01-13T20:42:19.402Z,8.40
2023-01-13T20:44:46.804Z,8.40
2023-01-13T20:47:14.593Z,8.40
2023-01-13T20:49:41.503Z,8.50
2023-01-13T20:52:11.007Z,8.60
2023-01-13T20:54:39.127Z,8.60
2023-01-13T20:57:07.960Z,8.60
2023-01-13T20:59:34.763Z,8.60
2023-01-13T21:02:01.943Z,8.70
2023-01-13T21:04:28.898Z,8.60
2023-01-13T21:06:56.296Z,8.70
2023-01-13T21:09:23.856Z,8.60
2023-01-13T21:12:09.799Z,8.60
2023-01-13T21:14:55.174Z,8.60
2023-01-13T21:17:41.602Z,8.60
2023-01-13T21:20:10.570Z,8.70
2023-01-13T21:22:38.893Z,8.60
2023-01-13T21:25:06.405Z,8.60
2023-01-13T21:27:34.660Z,8.60
2023-01-13T21:30:01.497Z,8.70
2023-01-13T21:32:28.490Z,8.70
2023-01-13T21:34:55.294Z,8.70
2023-01-13T21:37:22.275Z,8.60
2023-01-13T21:39:49.229Z,8.70
2023-01-13T21:42:35.861Z,8.70
2023-01-13T21:45:21.863Z,8.70
2023-01-13T21:47:48.684Z,8.70
2023-01-13T21:50:24.437Z,8.70
2023-01-13T21:52:52.604Z,8.70
2023-01-13T21:55:25.084Z,8.70
2023-01-13T21:57:53.911Z,8.60
2023-01-13T22:00:23.142Z,8.60
2023-01-13T22:02:50.184Z,8.50
2023-01-13T22:05:19.560Z,8.50
2023-01-13T22:07:46.496Z,8.60
2023-01-13T22:10:15.938Z,8.50
2023-01-13T22:12:43.555Z,8.50
2023-01-13T22:15:13.017Z,8.50
2023-01-13T22:17:41.107Z,8.40
2023-01-13T22:20:09.668Z,8.40
2023-01-13T22:22:39.419Z,8.40
2023-01-13T22:25:12.371Z,8.40
2023-01-13T22:27:40.742Z,8.30
2023-01-13T22:30:10.525Z,8.30
2023-01-13T22:32:38.725Z,8.20
2023-01-13T22:35:07.914Z,8.30
2023-01-13T22:37:35.283Z,8.30
2023-01-13T22:40:03.111Z,8.20
2023-01-13T22:42:29.903Z,8.20
2023-01-13T22:44:56.594Z,8.20
2023-01-13T22:47:23.359Z,8.20
2023-01-13T22:49:50.152Z,8.20
2023-01-13T22:52:17.795Z,8.10
2023-01-13T22:54:44.580Z,8.10
2023-01-13T22:57:11.424Z,8.10
2023-01-13T22:59:38.272Z,8.10
2023-01-13T23:02:04.975Z,8.10
2023-01-13T23:04:31.821Z,8.10
2023-01-13T23:06:59.959Z,8.10
2023-01-13T23:09:29.827Z,8.10
2023-01-13T23:11:58.604Z,8.10
2023-01-13T23:14:25.769Z,8.10
2023-01-13T23:16:52.802Z,8.00
2023-01-13T23:19:19.631Z,8.10
2023-01-13T23:21:46.429Z,8.00
2023-01-13T23:24:13.296Z,8.00
2023-01-13T23:26:40.064Z,8.10
2023-01-13T23:29:09.212Z,8.10
2023-01-13T23:31:36.067Z,8.10
2023-01-13T23:34:02.790Z,8.10
2023-01-13T23:36:30.463Z,8.10
2023-01-13T23:38:59.253Z,8.10
2023-01-13T23:41:27.683Z,8.10
2023-01-13T23:43:56.779Z,8.10
2023-01-13T23:46:23.866Z,8.10
2023-01-13T23:48:51.063Z,8.10
2023-01-13T23:51:18.632Z,8.00
2023-01-13T23:53:48.021Z,8.00
2023-01-13T23:56:17.776Z,8.00
2023-01-13T23:58:44.855Z,7.90
